Time;durP1;ratioP1;P1;durP2;ratioP2;P2;SDS_P1;SDS_P2;PMS_P1;PMS_P2;Temp;Humidity;BMP_temperature;BMP_pressure;BME280_temperature;BME280_humidity;BME280_pressure;Samples;Min_cycle;Max_cycle;Signal;HPM_P1;HPM_P2
2021/09/03 00:00:15;;;;;;;26.63;14.85;;;14.00;99.90;;;;;;5014259;28;20030;-75
2021/09/03 00:02:40;;;;;;;28.95;12.88;;;14.00;99.90;;;;;;5013451;28;20032;-74
2021/09/03 00:05:10;;;;;;;21.92;12.82;;;14.00;99.90;;;;;;5000677;28;20026;-75
2021/09/03 00:07:36;;;;;;;20.35;13.30;;;14.00;99.90;;;;;;5013181;28;20026;-75
2021/09/03 00:10:03;;;;;;;20.55;13.00;;;14.00;99.90;;;;;;5013488;28;20033;-75
2021/09/03 00:12:29;;;;;;;20.38;12.35;;;13.90;99.90;;;;;;5013779;28;20095;-75
2021/09/03 00:14:54;;;;;;;23.83;13.50;;;13.90;99.90;;;;;;5013097;28;20852;-75
2021/09/03 00:17:20;;;;;;;19.80;12.52;;;13.90;99.90;;;;;;5014037;28;20165;-75
2021/09/03 00:19:46;;;;;;;20.05;13.50;;;13.90;99.90;;;;;;5013589;28;20037;-75
2021/09/03 00:22:11;;;;;;;21.15;13.75;;;13.90;99.90;;;;;;5006670;28;20371;-76
2021/09/03 00:24:37;;;;;;;25.23;13.75;;;13.90;99.90;;;;;;5013298;28;20029;-75
2021/09/03 00:27:03;;;;;;;30.20;12.88;;;13.90;99.90;;;;;;5012437;28;20445;-75
2021/09/03 00:29:28;;;;;;;22.70;12.23;;;13.90;99.90;;;;;;5013136;28;20083;-75
2021/09/03 00:31:54;;;;;;;20.02;13.48;;;13.80;99.90;;;;;;5013479;28;20029;-76
2021/09/03 00:34:19;;;;;;;25.00;13.07;;;13.80;99.90;;;;;;5013694;28;20010;-74
2021/09/03 00:36:47;;;;;;;23.25;13.70;;;13.80;99.90;;;;;;5012727;28;20038;-75
2021/09/03 00:39:13;;;;;;;27.23;13.82;;;13.80;99.90;;;;;;5013339;28;20081;-76
2021/09/03 00:41:39;;;;;;;23.73;13.18;;;13.80;99.90;;;;;;5013212;28;20473;-76
2021/09/03 00:44:04;;;;;;;29.30;14.70;;;13.80;99.90;;;;;;5012682;28;20083;-76
2021/09/03 00:46:30;;;;;;;24.80;14.55;;;13.70;99.90;;;;;;5012312;28;20018;-76
2021/09/03 00:48:57;;;;;;;27.13;14.85;;;13.70;99.90;;;;;;5012569;28;20034;-76
2021/09/03 00:51:23;;;;;;;25.00;13.27;;;13.70;99.90;;;;;;5012231;28;20034;-76
2021/09/03 00:53:50;;;;;;;26.20;14.25;;;13.70;99.90;;;;;;5012668;28;20038;-75
2021/09/03 00:56:16;;;;;;;25.02;14.15;;;13.70;99.90;;;;;;5012684;28;20030;-75
2021/09/03 00:58:42;;;;;;;29.30;13.52;;;13.60;99.90;;;;;;5012001;28;20022;-75
2021/09/03 01:01:08;;;;;;;22.75;14.40;;;13.60;99.90;;;;;;5012994;28;20375;-75
2021/09/03 01:03:33;;;;;;;24.02;13.38;;;13.50;99.90;;;;;;5012847;28;20029;-76
2021/09/03 01:06:05;;;;;;;29.23;15.00;;;13.50;99.90;;;;;;5012561;28;20474;-75
2021/09/03 01:08:32;;;;;;;27.73;14.05;;;13.50;99.90;;;;;;5012636;28;20134;-75
2021/09/03 01:10:58;;;;;;;27.10;13.63;;;13.50;99.90;;;;;;5012179;28;20049;-76
2021/09/03 01:13:24;;;;;;;26.40;13.68;;;13.50;99.90;;;;;;5012997;28;20021;-75
2021/09/03 01:15:50;;;;;;;23.90;14.38;;;13.50;99.90;;;;;;5013459;28;20385;-75
2021/09/03 01:18:15;;;;;;;23.33;14.38;;;13.50;99.90;;;;;;5012932;28;20022;-74
2021/09/03 01:20:41;;;;;;;20.40;14.18;;;13.50;99.90;;;;;;5010236;28;20033;-74
2021/09/03 01:23:06;;;;;;;25.40;14.75;;;13.50;99.90;;;;;;5007175;28;20018;-75
2021/09/03 01:25:32;;;;;;;22.25;14.38;;;13.40;99.90;;;;;;5011683;28;20026;-75
2021/09/03 01:27:57;;;;;;;33.40;15.45;;;13.40;99.90;;;;;;5011323;28;20029;-75
2021/09/03 01:30:23;;;;;;;27.42;14.25;;;13.40;99.90;;;;;;5009916;28;20461;-75
2021/09/03 01:32:49;;;;;;;24.48;14.02;;;13.40;99.90;;;;;;4997538;28;20442;-74
2021/09/03 01:35:15;;;;;;;30.63;14.65;;;13.30;99.90;;;;;;5006188;28;20091;-74
2021/09/03 01:37:41;;;;;;;25.00;15.00;;;13.30;99.90;;;;;;5012223;28;20045;-74
2021/09/03 01:40:10;;;;;;;28.35;14.05;;;13.30;99.90;;;;;;5011935;28;20458;-75
2021/09/03 01:42:36;;;;;;;25.85;14.77;;;13.30;99.90;;;;;;5012421;28;20029;-75
2021/09/03 01:45:03;;;;;;;24.40;14.93;;;13.30;99.90;;;;;;5012714;28;20022;-75
2021/09/03 01:47:29;;;;;;;26.10;14.23;;;13.20;99.90;;;;;;5011513;28;20049;-75
2021/09/03 01:49:55;;;;;;;28.98;15.52;;;13.30;99.90;;;;;;5011897;28;20082;-75
2021/09/03 01:52:21;;;;;;;23.52;15.25;;;13.20;99.90;;;;;;5012372;28;20064;-75
2021/09/03 01:54:46;;;;;;;24.88;15.23;;;13.10;99.90;;;;;;4997817;28;20030;-75
2021/09/03 01:57:12;;;;;;;27.15;15.40;;;13.20;99.90;;;;;;5012603;28;20071;-75
2021/09/03 01:59:38;;;;;;;24.33;14.75;;;13.20;99.90;;;;;;5012004;28;20069;-75
2021/09/03 02:02:04;;;;;;;23.55;15.35;;;13.20;99.90;;;;;;5011660;28;20026;-74
2021/09/03 02:04:29;;;;;;;30.95;15.88;;;13.20;99.90;;;;;;5011613;28;20045;-74
2021/09/03 02:06:55;;;;;;;26.98;14.55;;;13.20;99.90;;;;;;5012057;28;20060;-75
2021/09/03 02:09:20;;;;;;;28.08;16.13;;;13.10;99.90;;;;;;5011410;28;20033;-75
2021/09/03 02:11:46;;;;;;;21.80;14.57;;;13.10;99.90;;;;;;4998573;28;20506;-74
2021/09/03 02:14:12;;;;;;;24.42;15.27;;;13.10;99.90;;;;;;5013485;28;20076;-75
2021/09/03 02:16:37;;;;;;;28.60;16.42;;;13.10;99.90;;;;;;5011292;28;20029;-73
2021/09/03 02:19:04;;;;;;;29.23;15.52;;;13.10;99.90;;;;;;5011749;28;20026;-77
2021/09/03 02:21:30;;;;;;;29.42;16.70;;;13.10;99.90;;;;;;5011016;28;20034;-74
2021/09/03 02:23:55;;;;;;;31.05;16.55;;;13.10;99.90;;;;;;5012275;28;20026;-74
2021/09/03 02:26:21;;;;;;;31.02;16.52;;;13.10;99.90;;;;;;5013240;28;20022;-76
2021/09/03 02:28:46;;;;;;;27.35;15.68;;;13.00;99.90;;;;;;5011293;28;20084;-74
2021/09/03 02:31:12;;;;;;;26.38;16.48;;;13.00;99.90;;;;;;5011802;28;20112;-74
2021/09/03 02:33:37;;;;;;;29.42;16.67;;;13.00;99.90;;;;;;5015834;28;20100;-75
2021/09/03 02:36:03;;;;;;;31.52;16.98;;;13.00;99.90;;;;;;5015038;28;20018;-75
2021/09/03 02:38:29;;;;;;;27.30;15.95;;;12.90;99.90;;;;;;5015389;28;20052;-75
2021/09/03 02:40:54;;;;;;;27.17;16.17;;;12.90;99.90;;;;;;5016002;28;20049;-75
2021/09/03 02:43:20;;;;;;;35.10;16.77;;;12.90;99.90;;;;;;5015309;28;20081;-75
2021/09/03 02:45:46;;;;;;;28.35;15.27;;;12.90;99.90;;;;;;5015442;28;20355;-75
2021/09/03 02:48:11;;;;;;;31.65;16.88;;;12.90;99.90;;;;;;5015917;28;20033;-75
2021/09/03 02:50:37;;;;;;;33.85;16.85;;;12.80;99.90;;;;;;5014431;28;20117;-75
2021/09/03 02:53:03;;;;;;;30.00;16.23;;;12.80;99.90;;;;;;5015455;28;20033;-75
2021/09/03 02:55:29;;;;;;;33.92;17.40;;;12.80;99.90;;;;;;5015706;28;20079;-75
2021/09/03 02:57:56;;;;;;;37.85;18.60;;;12.80;99.90;;;;;;5014882;28;20092;-75
2021/09/03 03:00:22;;;;;;;26.58;15.70;;;12.80;99.90;;;;;;5015658;28;20076;-75
2021/09/03 03:02:47;;;;;;;31.15;16.88;;;12.80;99.90;;;;;;5015161;28;20017;-75
2021/09/03 03:05:13;;;;;;;27.67;16.90;;;12.80;99.90;;;;;;5014573;28;20906;-75
2021/09/03 03:07:38;;;;;;;32.67;17.17;;;12.70;99.90;;;;;;5014869;28;20084;-75
2021/09/03 03:10:06;;;;;;;34.15;17.15;;;12.70;99.90;;;;;;5013249;28;20062;-76
2021/09/03 03:12:32;;;;;;;30.27;16.23;;;12.80;99.90;;;;;;5014111;28;20034;-75
2021/09/03 03:14:58;;;;;;;32.88;17.25;;;12.70;99.90;;;;;;5015103;28;20083;-76
2021/09/03 03:17:23;;;;;;;34.58;18.27;;;12.70;99.90;;;;;;5014990;28;20022;-74
2021/09/03 03:19:49;;;;;;;29.73;17.08;;;12.70;99.90;;;;;;5013888;28;20073;-74
2021/09/03 03:22:15;;;;;;;32.05;17.92;;;12.70;99.90;;;;;;5014858;28;20038;-74
2021/09/03 03:24:41;;;;;;;29.80;16.48;;;12.70;99.90;;;;;;5013870;28;20052;-74
2021/09/03 03:27:06;;;;;;;33.58;18.52;;;12.70;99.90;;;;;;5015338;28;20417;-74
2021/09/03 03:29:32;;;;;;;29.00;17.30;;;12.60;99.90;;;;;;5014563;28;20026;-74
2021/09/03 03:31:58;;;;;;;32.88;17.92;;;12.70;99.90;;;;;;5013843;28;20033;-74
2021/09/03 03:34:23;;;;;;;32.60;17.30;;;12.60;99.90;;;;;;5014726;28;20033;-74
2021/09/03 03:36:49;;;;;;;33.42;17.48;;;12.70;99.90;;;;;;5014507;28;20106;-74
2021/09/03 03:39:15;;;;;;;39.80;18.10;;;12.70;99.90;;;;;;5014355;28;20042;-75
2021/09/03 03:41:40;;;;;;;29.65;18.23;;;12.60;99.90;;;;;;5014578;28;20429;-74
2021/09/03 03:44:06;;;;;;;35.17;17.77;;;12.60;99.90;;;;;;5013750;28;20021;-74
2021/09/03 03:46:31;;;;;;;28.90;16.33;;;12.60;99.90;;;;;;5013774;28;20026;-74
2021/09/03 03:48:57;;;;;;;35.63;16.67;;;12.60;99.90;;;;;;5014177;28;20091;-74
2021/09/03 03:51:23;;;;;;;30.25;17.40;;;12.60;99.90;;;;;;5014221;28;20037;-75
2021/09/03 03:53:49;;;;;;;33.83;17.85;;;12.60;99.90;;;;;;5013699;28;20374;-74
2021/09/03 03:56:14;;;;;;;29.30;17.23;;;12.70;99.90;;;;;;5014278;28;20500;-74
2021/09/03 03:58:40;;;;;;;35.92;17.10;;;12.60;99.90;;;;;;5014283;28;20018;-75
2021/09/03 04:01:05;;;;;;;33.53;17.83;;;12.60;99.90;;;;;;5013450;28;20493;-74
2021/09/03 04:03:31;;;;;;;39.00;18.45;;;12.60;99.90;;;;;;5013837;28;20022;-75
2021/09/03 04:05:56;;;;;;;34.85;16.80;;;12.60;99.90;;;;;;5014290;28;20112;-75
2021/09/03 04:08:22;;;;;;;36.42;17.70;;;12.50;99.90;;;;;;4999832;28;20016;-75
2021/09/03 04:10:48;;;;;;;31.77;17.05;;;12.50;99.90;;;;;;5013789;28;20209;-75
2021/09/03 04:13:13;;;;;;;42.40;18.90;;;12.50;99.90;;;;;;5013941;28;20033;-74
2021/09/03 04:15:39;;;;;;;32.42;17.67;;;12.50;99.90;;;;;;5013210;28;20041;-75
2021/09/03 04:18:04;;;;;;;32.72;18.05;;;12.60;99.90;;;;;;5013973;28;20029;-75
2021/09/03 04:20:30;;;;;;;32.55;17.10;;;12.50;99.90;;;;;;5013694;28;20030;-76
2021/09/03 04:22:56;;;;;;;33.78;17.50;;;12.50;99.90;;;;;;5013010;28;20116;-74
2021/09/03 04:25:22;;;;;;;40.92;19.45;;;12.50;99.90;;;;;;5014199;28;20018;-74
2021/09/03 04:27:48;;;;;;;35.13;18.63;;;12.40;99.90;;;;;;5013678;28;20587;-74
2021/09/03 04:30:13;;;;;;;35.45;18.60;;;12.50;99.90;;;;;;5012788;28;20080;-74
2021/09/03 04:32:39;;;;;;;32.42;18.90;;;12.40;99.90;;;;;;4999730;28;20030;-74
2021/09/03 04:35:09;;;;;;;35.35;17.45;;;12.50;99.90;;;;;;5012939;28;20044;-74
2021/09/03 04:37:48;;;;;;;32.38;18.13;;;12.80;99.90;;;;;;5013492;28;20097;-75
2021/09/03 04:40:16;;;;;;;36.00;18.80;;;12.40;99.90;;;;;;5013722;28;20030;-74
2021/09/03 04:42:42;;;;;;;31.63;18.25;;;12.40;99.90;;;;;;5012622;28;20030;-75
2021/09/03 04:45:12;;;;;;;35.35;20.20;;;12.40;99.90;;;;;;5014065;28;20378;-76
2021/09/03 04:47:38;;;;;;;38.63;19.92;;;12.40;99.90;;;;;;5012782;28;20030;-76
2021/09/03 04:50:07;;;;;;;39.83;18.10;;;12.40;99.90;;;;;;5011924;28;20050;-77
2021/09/03 04:52:32;;;;;;;37.03;19.77;;;12.40;99.90;;;;;;5012502;28;20051;-76
2021/09/03 04:54:58;;;;;;;43.60;20.52;;;12.40;99.90;;;;;;5012855;28;20065;-76
2021/09/03 04:57:24;;;;;;;36.58;20.33;;;12.40;99.90;;;;;;5013238;28;20125;-76
2021/09/03 04:59:50;;;;;;;34.00;18.98;;;12.30;99.90;;;;;;5012099;28;20366;-74
2021/09/03 05:02:17;;;;;;;40.05;20.38;;;12.30;99.90;;;;;;5012936;28;20029;-77
2021/09/03 05:04:42;;;;;;;40.47;19.75;;;12.30;99.90;;;;;;5012187;28;20037;-76
2021/09/03 05:07:10;;;;;;;41.92;19.90;;;12.30;99.90;;;;;;5013048;28;20720;-74
2021/09/03 05:09:36;;;;;;;33.78;19.92;;;12.30;99.90;;;;;;4999082;28;20394;-74
2021/09/03 05:12:03;;;;;;;37.92;20.40;;;12.30;99.90;;;;;;5001942;28;20045;-77
2021/09/03 05:14:28;;;;;;;38.85;19.95;;;12.30;99.90;;;;;;4994263;28;20032;-74
2021/09/03 05:16:54;;;;;;;37.90;18.65;;;12.30;99.90;;;;;;5003057;28;20049;-74
2021/09/03 05:19:20;;;;;;;38.45;21.25;;;12.40;99.90;;;;;;5000682;28;20029;-74
2021/09/03 05:21:45;;;;;;;40.17;20.85;;;12.40;99.90;;;;;;5003740;28;20061;-75
2021/09/03 05:24:11;;;;;;;38.08;20.88;;;12.40;99.90;;;;;;5002706;28;20497;-75
2021/09/03 05:26:39;;;;;;;32.65;20.98;;;12.40;99.90;;;;;;4999322;28;20506;-74
2021/09/03 05:29:05;;;;;;;44.67;21.00;;;12.40;99.90;;;;;;5001261;28;20015;-74
2021/09/03 05:31:31;;;;;;;43.97;21.02;;;12.40;99.90;;;;;;4993810;28;20042;-74
2021/09/03 05:33:56;;;;;;;37.92;21.60;;;12.50;99.90;;;;;;4992669;28;20030;-76
2021/09/03 05:36:23;;;;;;;35.28;20.35;;;12.50;99.90;;;;;;4993867;28;20022;-76
2021/09/03 05:38:49;;;;;;;44.70;21.95;;;12.50;99.90;;;;;;4998979;28;20549;-75
2021/09/03 05:41:15;;;;;;;46.22;20.88;;;12.50;99.90;;;;;;4994451;28;20065;-75
2021/09/03 05:43:41;;;;;;;37.83;20.83;;;12.50;99.90;;;;;;4992655;28;20402;-75
2021/09/03 05:46:12;;;;;;;43.58;21.73;;;12.60;99.90;;;;;;4998049;28;20018;-75
2021/09/03 05:48:38;;;;;;;41.33;21.83;;;12.60;99.90;;;;;;4994150;28;20026;-75
2021/09/03 05:51:04;;;;;;;40.70;20.33;;;12.70;99.90;;;;;;5000819;28;20379;-76
2021/09/03 05:53:29;;;;;;;36.88;20.48;;;12.70;99.90;;;;;;5010849;28;20056;-76
2021/09/03 05:55:55;;;;;;;41.67;20.98;;;12.70;99.90;;;;;;5011663;28;20014;-76
2021/09/03 05:58:20;;;;;;;38.50;21.08;;;12.80;99.90;;;;;;5011042;28;20030;-75
2021/09/03 06:00:46;;;;;;;41.97;21.65;;;12.80;99.90;;;;;;5008349;28;20041;-74
2021/09/03 06:03:17;;;;;;;44.92;22.08;;;12.80;99.90;;;;;;5003878;28;20538;-76
2021/09/03 06:05:43;;;;;;;41.90;20.60;;;12.90;99.90;;;;;;5002383;28;20101;-75
2021/09/03 06:08:08;;;;;;;42.40;21.55;;;12.90;99.90;;;;;;5009961;28;20026;-76
2021/09/03 06:10:34;;;;;;;50.80;22.35;;;12.90;99.90;;;;;;5010846;28;20038;-75
2021/09/03 06:12:59;;;;;;;40.35;21.42;;;13.00;99.90;;;;;;5011935;28;20014;-77
2021/09/03 06:15:25;;;;;;;42.92;21.45;;;13.10;99.90;;;;;;5011316;28;20048;-77
2021/09/03 06:17:51;;;;;;;41.58;22.38;;;13.10;99.90;;;;;;5011710;28;20133;-81
2021/09/03 06:20:16;;;;;;;43.70;22.15;;;13.10;99.90;;;;;;5012285;28;20022;-77
2021/09/03 06:22:42;;;;;;;35.05;19.92;;;13.20;99.90;;;;;;5011155;28;20113;-81
2021/09/03 06:25:08;;;;;;;37.55;19.88;;;13.30;99.90;;;;;;5012054;28;20026;-78
2021/09/03 06:27:34;;;;;;;40.83;20.38;;;13.40;99.90;;;;;;5012824;28;20021;-84
2021/09/03 06:29:59;;;;;;;35.95;20.30;;;13.40;99.90;;;;;;5012221;28;20038;-80
2021/09/03 06:32:28;;;;;;;41.67;19.33;;;13.40;99.90;;;;;;5010791;28;20018;-80
2021/09/03 06:34:59;;;;;;;44.05;20.98;;;13.60;99.90;;;;;;5012117;28;20022;-83
2021/09/03 06:37:27;;;;;;;41.03;23.10;;;13.60;99.90;;;;;;5011961;28;20083;-85
2021/09/03 06:40:00;;;;;;;32.35;20.27;;;13.70;99.90;;;;;;5009523;28;20040;-85
2021/09/03 06:42:28;;;;;;;37.65;20.30;;;14.00;99.90;;;;;;5011363;28;20368;-85
2021/09/03 06:44:54;;;;;;;38.17;20.75;;;13.80;99.90;;;;;;5015588;28;20466;-85
2021/09/03 06:47:19;;;;;;;37.22;20.10;;;13.90;99.90;;;;;;5018936;28;20100;-82
2021/09/03 06:49:45;;;;;;;37.40;20.58;;;13.90;99.90;;;;;;5017318;28;20054;-83
2021/09/03 06:52:12;;;;;;;34.50;21.70;;;14.00;99.90;;;;;;5013116;28;20470;-85
2021/09/03 06:54:39;;;;;;;36.05;20.70;;;14.20;99.90;;;;;;5011893;28;20052;-84
2021/09/03 06:57:04;;;;;;;43.13;21.08;;;14.10;99.90;;;;;;5012580;28;20372;-84
2021/09/03 06:59:30;;;;;;;34.75;21.08;;;14.10;99.90;;;;;;5012349;28;20028;-82
2021/09/03 07:01:56;;;;;;;34.58;21.08;;;14.20;99.90;;;;;;5015826;28;20026;-82
2021/09/03 07:04:22;;;;;;;40.88;21.63;;;14.20;99.90;;;;;;5013668;28;20149;-83
2021/09/03 07:06:49;;;;;;;34.40;20.20;;;14.30;99.90;;;;;;5013410;28;20026;-84
2021/09/03 07:09:15;;;;;;;37.08;22.05;;;14.40;99.90;;;;;;5012025;28;20033;-84
2021/09/03 07:11:41;;;;;;;39.83;22.00;;;14.40;99.90;;;;;;5011666;28;20057;-84
2021/09/03 07:14:06;;;;;;;33.78;20.25;;;14.50;99.90;;;;;;5012245;28;20014;-81
2021/09/03 07:16:32;;;;;;;40.35;22.10;;;14.50;99.90;;;;;;5014551;28;20068;-82
2021/09/03 07:19:02;;;;;;;38.33;19.85;;;14.60;99.90;;;;;;5014267;28;20030;-84
2021/09/03 07:21:28;;;;;;;36.17;22.13;;;14.60;99.90;;;;;;5015151;28;20042;-84
2021/09/03 07:23:54;;;;;;;41.90;22.08;;;14.70;99.90;;;;;;5014600;28;20080;-84
2021/09/03 07:26:19;;;;;;;37.17;21.17;;;14.80;99.90;;;;;;5016302;28;20029;-84
2021/09/03 07:28:45;;;;;;;41.78;21.67;;;14.90;99.90;;;;;;5018629;28;20034;-82
2021/09/03 07:31:11;;;;;;;36.72;22.05;;;14.90;99.90;;;;;;5007560;28;20030;-84
2021/09/03 07:33:36;;;;;;;38.15;21.58;;;15.00;99.90;;;;;;5009760;28;20052;-85
2021/09/03 07:36:02;;;;;;;36.38;21.02;;;15.10;99.90;;;;;;5016562;28;20018;-83
2021/09/03 07:38:28;;;;;;;31.58;20.38;;;15.20;99.90;;;;;;5016157;28;20040;-83
2021/09/03 07:40:54;;;;;;;36.22;21.92;;;15.20;99.90;;;;;;5015511;28;20026;-80
2021/09/03 07:43:20;;;;;;;39.75;21.00;;;15.30;99.90;;;;;;5015509;28;20059;-83
2021/09/03 07:45:46;;;;;;;35.08;21.02;;;15.40;99.90;;;;;;5014454;28;20025;-74
2021/09/03 07:48:12;;;;;;;31.17;19.85;;;15.50;99.90;;;;;;5014606;28;20439;-79
2021/09/03 07:50:38;;;;;;;33.58;20.65;;;15.60;99.90;;;;;;5013988;28;20054;-78
2021/09/03 07:53:04;;;;;;;35.30;21.50;;;15.60;99.90;;;;;;5013277;28;20482;-81
2021/09/03 07:55:30;;;;;;;41.83;21.63;;;15.70;99.90;;;;;;5013697;28;20512;-80
2021/09/03 07:57:56;;;;;;;33.95;19.83;;;15.80;99.90;;;;;;5014465;28;20022;-82
2021/09/03 08:00:21;;;;;;;33.42;20.50;;;15.80;99.90;;;;;;5013173;28;20030;-81
2021/09/03 08:02:47;;;;;;;36.85;20.20;;;16.00;99.90;;;;;;5014219;28;20117;-81
2021/09/03 08:05:12;;;;;;;29.30;19.58;;;16.00;99.90;;;;;;5014965;28;20040;-83
2021/09/03 08:07:41;;;;;;;35.38;19.13;;;16.10;99.90;;;;;;5014041;28;20038;-83
2021/09/03 08:10:09;;;;;;;37.28;20.85;;;16.20;99.90;;;;;;5016020;28;20486;-81
2021/09/03 08:12:35;;;;;;;29.80;19.80;;;16.20;99.90;;;;;;5010952;28;20108;-83
2021/09/03 08:15:01;;;;;;;33.10;20.65;;;16.30;99.90;;;;;;5013649;28;20114;-82
2021/09/03 08:17:26;;;;;;;30.67;19.05;;;16.40;99.90;;;;;;5014236;28;20165;-82
2021/09/03 08:19:52;;;;;;;28.30;20.15;;;16.50;99.90;;;;;;5014469;28;20068;-83
2021/09/03 08:22:17;;;;;;;35.05;20.13;;;16.60;99.90;;;;;;5013553;28;20489;-82
2021/09/03 08:24:43;;;;;;;33.72;18.50;;;16.70;99.90;;;;;;5014353;28;20111;-83
2021/09/03 08:27:09;;;;;;;27.80;17.38;;;16.70;99.90;;;;;;5013775;28;20494;-83
2021/09/03 08:29:34;;;;;;;35.15;18.15;;;16.80;99.90;;;;;;5014865;28;20486;-83
2021/09/03 08:32:00;;;;;;;28.95;17.52;;;16.90;99.90;;;;;;5002468;28;20030;-82
2021/09/03 08:34:25;;;;;;;26.30;16.95;;;17.00;99.90;;;;;;5015758;28;20037;-81
2021/09/03 08:36:51;;;;;;;29.15;17.75;;;17.10;99.90;;;;;;5015024;28;20360;-82
2021/09/03 08:39:17;;;;;;;27.73;17.92;;;17.20;99.90;;;;;;5013991;28;20045;-84
2021/09/03 08:41:42;;;;;;;26.80;17.38;;;17.20;99.90;;;;;;5013198;28;20055;-82
2021/09/03 08:44:08;;;;;;;24.42;16.63;;;17.20;99.90;;;;;;5014250;28;20054;-83
2021/09/03 08:46:34;;;;;;;29.17;17.13;;;17.30;99.90;;;;;;5014061;28;20042;-82
2021/09/03 08:49:07;;;;;;;24.90;16.65;;;17.40;99.90;;;;;;5013120;28;20145;-81
2021/09/03 08:51:32;;;;;;;26.35;17.65;;;17.50;99.90;;;;;;5013430;28;20042;-82
2021/09/03 08:53:58;;;;;;;27.77;16.92;;;17.60;99.90;;;;;;5013006;28;20433;-82
2021/09/03 08:56:24;;;;;;;29.35;17.48;;;17.70;99.90;;;;;;5013215;28;20026;-82
2021/09/03 08:58:52;;;;;;;26.13;17.38;;;17.80;99.90;;;;;;5014369;28;20473;-83
2021/09/03 09:01:21;;;;;;;29.08;18.05;;;17.80;99.90;;;;;;5016582;28;20025;-81
2021/09/03 09:03:51;;;;;;;26.25;15.93;;;17.90;99.90;;;;;;5013502;28;20386;-83
2021/09/03 09:06:18;;;;;;;;;;;18.00;99.90;;;;;;5013951;28;20022;-83
2021/09/03 09:08:43;;;;;;;31.27;17.30;;;18.10;99.90;;;;;;5013066;28;20349;-83
2021/09/03 09:11:16;;;;;;;28.88;16.48;;;18.20;99.90;;;;;;5025288;28;20045;-83
2021/09/03 09:13:46;;;;;;;25.40;15.10;;;18.20;99.90;;;;;;5021441;28;20053;-82
2021/09/03 09:16:21;;;;;;;29.00;15.70;;;18.20;99.90;;;;;;5021600;28;20117;-82
2021/09/03 09:18:51;;;;;;;31.10;15.40;;;18.30;99.90;;;;;;5013647;28;20298;-82
2021/09/03 09:21:34;;;;;;;22.15;14.80;;;18.40;99.90;;;;;;5013722;28;20033;-81
2021/09/03 09:24:09;;;;;;;28.42;16.42;;;18.50;99.90;;;;;;5012856;28;20030;-83
2021/09/03 09:26:45;;;;;;;22.55;13.90;;;18.50;99.90;;;;;;5012668;28;20026;-83
2021/09/03 09:29:21;;;;;;;26.95;13.82;;;18.50;99.90;;;;;;5013043;28;20100;-83
2021/09/03 09:31:51;;;;;;;27.10;14.02;;;18.70;99.90;;;;;;4999568;28;20045;-82
2021/09/03 09:34:22;;;;;;;26.05;15.57;;;18.70;99.90;;;;;;5012406;28;20049;-84
2021/09/03 09:36:51;;;;;;;20.73;13.73;;;18.80;99.90;;;;;;5012887;28;20120;-84
2021/09/03 09:39:19;;;;;;;23.60;14.65;;;18.80;99.90;;;;;;5011891;28;20021;-84
2021/09/03 09:41:46;;;;;;;24.98;14.52;;;18.90;99.90;;;;;;5012360;28;20025;-84
2021/09/03 09:44:12;;;;;;;22.65;14.70;;;19.00;99.90;;;;;;5013191;28;20022;-84
2021/09/03 09:46:38;;;;;;;19.15;14.63;;;19.00;99.90;;;;;;5015328;28;20053;-83
2021/09/03 09:49:10;;;;;;;22.15;14.63;;;19.10;99.90;;;;;;5012599;28;20050;-83
2021/09/03 09:51:50;;;;;;;20.13;14.05;;;19.20;99.90;;;;;;5011937;28;20041;-81
2021/09/03 09:54:25;;;;;;;21.27;14.35;;;19.30;99.90;;;;;;5013600;28;20548;-84
2021/09/03 09:56:59;;;;;;;19.63;12.98;;;19.40;99.90;;;;;;5016562;28;20040;-82
2021/09/03 09:59:26;;;;;;;26.15;14.32;;;19.50;99.90;;;;;;5023596;28;20386;-81
2021/09/03 10:01:57;;;;;;;18.38;13.98;;;19.50;99.90;;;;;;5027996;28;20018;-82
2021/09/03 10:04:25;;;;;;;22.23;13.10;;;19.60;99.90;;;;;;5014237;28;20410;-83
2021/09/03 10:06:53;;;;;;;19.40;12.70;;;19.60;99.90;;;;;;5015854;28;20057;-83
2021/09/03 10:09:21;;;;;;;19.38;12.95;;;19.80;99.90;;;;;;5013921;28;20382;-83
2021/09/03 10:11:49;;;;;;;16.92;13.02;;;19.90;99.90;;;;;;5012795;28;20045;-83
2021/09/03 10:14:18;;;;;;;20.08;13.20;;;19.90;99.90;;;;;;5013352;28;20156;-83
2021/09/03 10:16:46;;;;;;;20.27;13.27;;;20.00;99.90;;;;;;5013038;28;20037;-82
2021/09/03 10:19:15;;;;;;;17.75;12.20;;;20.00;99.90;;;;;;5012949;28;20057;-82
2021/09/03 10:21:41;;;;;;;19.23;13.32;;;20.10;99.90;;;;;;5011675;28;20025;-82
2021/09/03 10:24:24;;;;;;;18.48;13.13;;;20.10;99.90;;;;;;5012588;28;20101;-82
2021/09/03 10:26:53;;;;;;;19.98;12.70;;;20.10;99.90;;;;;;5011616;28;20042;-81
2021/09/03 10:29:31;;;;;;;18.77;12.43;;;20.20;99.90;;;;;;5012480;28;20022;-82
2021/09/03 10:32:06;;;;;;;21.35;13.00;;;20.30;99.90;;;;;;5012457;28;20049;-82
2021/09/03 10:34:44;;;;;;;19.17;12.90;;;20.30;99.90;;;;;;5010979;28;20030;-81
2021/09/03 10:37:15;;;;;;;19.52;12.30;;;20.40;99.90;;;;;;5007465;28;20464;-82
2021/09/03 10:39:47;;;;;;;21.98;12.45;;;20.40;99.90;;;;;;5011848;28;20026;-82
2021/09/03 10:42:37;;;;;;;20.65;13.65;;;20.50;99.90;;;;;;5011038;28;20033;-82
2021/09/03 10:45:09;;;;;;;17.83;12.18;;;20.50;99.90;;;;;;5012527;28;20053;-81
2021/09/03 10:47:59;;;;;;;20.50;13.93;;;20.60;99.90;;;;;;5011722;28;20061;-79
2021/09/03 10:50:52;;;;;;;20.58;13.88;;;20.60;99.90;;;;;;5011581;28;20056;-80
2021/09/03 10:53:21;;;;;;;16.42;12.60;;;20.60;99.90;;;;;;5015394;28;20126;-81
2021/09/03 10:55:52;;;;;;;18.52;12.32;;;20.60;99.90;;;;;;5014788;28;20030;-82
2021/09/03 10:58:30;;;;;;;17.98;13.52;;;20.70;99.90;;;;;;5015812;28;20018;-80
2021/09/03 11:04:04;;;;;;;18.60;12.48;;;20.90;99.90;;;;;;5010535;28;20504;-81
2021/09/03 11:06:36;;;;;;;20.00;12.40;;;20.90;99.90;;;;;;5014624;28;20022;-80
2021/09/03 11:09:16;;;;;;;17.13;11.25;;;21.00;99.90;;;;;;5014177;28;20105;-79
2021/09/03 11:11:48;;;;;;;18.17;12.57;;;21.00;99.90;;;;;;5015099;28;20034;-80
2021/09/03 11:14:43;;;;;;;20.63;13.30;;;21.10;99.90;;;;;;5014936;28;20032;-80
2021/09/03 11:17:13;;;;;;;25.35;14.65;;;21.20;99.90;;;;;;4999889;28;20034;-80
2021/09/03 11:19:47;;;;;;;21.40;14.27;;;21.30;99.90;;;;;;5015991;28;20018;-81
2021/09/03 11:22:17;;;;;;;24.75;15.77;;;21.30;99.90;;;;;;5022552;28;20038;-78
2021/09/03 11:24:47;;;;;;;;;;;21.40;99.90;;;;;;5016002;28;20026;-84
2021/09/03 11:27:16;;;;;;;18.45;11.30;;;21.50;99.90;;;;;;5014887;28;20409;-81
2021/09/03 11:29:44;;;;;;;18.48;11.30;;;21.60;99.90;;;;;;5014563;28;20549;-80
2021/09/03 11:32:11;;;;;;;21.77;14.68;;;21.80;99.90;;;;;;5000792;28;20022;-82
2021/09/03 11:34:58;;;;;;;19.08;13.82;;;21.70;99.90;;;;;;5015120;28;20018;-81
2021/09/03 11:37:29;;;;;;;23.63;14.82;;;21.90;99.90;;;;;;5014265;28;20033;-73
2021/09/03 11:40:01;;;;;;;18.63;13.38;;;22.00;99.90;;;;;;5004638;28;20105;-73
2021/09/03 11:42:32;;;;;;;19.75;15.38;;;22.00;99.90;;;;;;5011575;28;20077;-79
2021/09/03 11:45:01;;;;;;;20.88;13.85;;;21.90;99.90;;;;;;5013745;28;20068;-79
2021/09/03 11:47:35;;;;;;;22.13;14.43;;;21.90;99.90;;;;;;5005057;28;20077;-79
2021/09/03 11:50:05;;;;;;;24.42;14.93;;;22.00;99.90;;;;;;5006834;28;20049;-79
2021/09/03 11:52:32;;;;;;;19.85;15.00;;;22.20;99.90;;;;;;5010521;28;20030;-79
2021/09/03 11:54:59;;;;;;;19.45;14.02;;;22.30;99.90;;;;;;5014350;28;20053;-80
2021/09/03 11:57:25;;;;;;;22.00;15.52;;;22.50;99.90;;;;;;5013953;28;20037;-80
2021/09/03 12:00:00;;;;;;;27.50;14.77;;;22.50;99.90;;;;;;5013579;28;20037;-80
2021/09/03 12:02:28;;;;;;;22.88;14.95;;;22.50;99.90;;;;;;5014018;28;20378;-80
2021/09/03 12:04:56;;;;;;;19.70;15.27;;;22.50;99.90;;;;;;5012654;28;20037;-79
2021/09/03 12:07:26;;;;;;;26.48;15.98;;;22.30;99.90;;;;;;5013304;28;20026;-80
2021/09/03 12:09:56;;;;;;;27.52;13.70;;;22.20;99.90;;;;;;5014415;28;20451;-80
2021/09/03 12:12:23;;;;;;;17.92;13.52;;;22.30;99.90;;;;;;5013384;28;20030;-79
2021/09/03 12:15:00;;;;;;;23.27;14.32;;;22.30;99.90;;;;;;5013974;28;20026;-78
2021/09/03 12:17:36;;;;;;;18.23;13.13;;;22.60;99.90;;;;;;5016167;28;20048;-80
2021/09/03 12:20:09;;;;;;;22.55;12.90;;;22.40;99.90;;;;;;5013935;28;20073;-79
2021/09/03 12:22:46;;;;;;;20.70;14.45;;;22.40;99.90;;;;;;5013728;28;20462;-80
2021/09/03 12:25:12;;;;;;;20.75;14.82;;;22.60;99.90;;;;;;5014606;28;20056;-79
2021/09/03 12:27:37;;;;;;;23.88;15.73;;;22.60;99.90;;;;;;5013305;28;20061;-80
2021/09/03 12:30:13;;;;;;;23.00;15.63;;;22.60;99.90;;;;;;5017263;28;20034;-79
2021/09/03 12:32:39;;;;;;;21.15;13.75;;;22.70;99.90;;;;;;5000184;28;20057;-78